createdAt,value
2022-12-18T00:02:16.331Z,82.86
2022-12-18T00:04:43.570Z,81.77
2022-12-18T00:07:10.554Z,81.62
2022-12-18T00:09:39.351Z,81.86
2022-12-18T00:14:45.561Z,83.11
2022-12-18T00:17:12.592Z,82.41
2022-12-18T00:19:39.477Z,81.09
2022-12-18T00:22:06.964Z,81.28
2022-12-18T00:24:34.278Z,81.35
2022-12-18T00:27:01.408Z,82.64
2022-12-18T00:29:28.620Z,83.73
2022-12-18T00:31:55.741Z,83.49
2022-12-18T00:34:23.936Z,82.04
2022-12-18T00:36:53.008Z,81.80
2022-12-18T00:39:19.927Z,81.46
2022-12-18T00:42:05.319Z,82.67
2022-12-18T00:44:32.536Z,84.14
2022-12-18T00:46:59.541Z,84.06
2022-12-18T00:49:26.326Z,82.60
2022-12-18T00:51:56.186Z,82.24
2022-12-18T00:54:23.253Z,82.25
2022-12-18T00:56:50.790Z,83.04
2022-12-18T00:59:18.353Z,82.73
2022-12-18T01:01:46.123Z,83.22
2022-12-18T01:04:13.782Z,81.79
2022-12-18T01:06:41.317Z,81.28
2022-12-18T01:09:10.119Z,80.86
2022-12-18T01:11:37.576Z,81.24
2022-12-18T01:14:05.903Z,82.39
2022-12-18T01:16:34.215Z,83.74
2022-12-18T01:19:01.338Z,82.85
2022-12-18T01:21:28.378Z,81.69
2022-12-18T01:23:56.097Z,81.31
2022-12-18T01:26:24.769Z,81.42
2022-12-18T01:28:51.857Z,82.62
2022-12-18T01:31:27.914Z,83.07
2022-12-18T01:33:55.503Z,82.81
2022-12-18T01:36:24.735Z,81.62
2022-12-18T01:38:51.785Z,81.88
2022-12-18T01:41:24.559Z,82.20
2022-12-18T01:43:55.606Z,83.44
2022-12-18T01:46:26.541Z,84.23
2022-12-18T01:48:58.506Z,83.05
2022-12-18T01:51:26.167Z,81.95
2022-12-18T01:53:53.156Z,81.97
2022-12-18T01:56:20.460Z,82.31
2022-12-18T01:59:03.996Z,83.19
2022-12-18T02:01:31.247Z,84.06
2022-12-18T02:04:34.341Z,83.50
2022-12-18T02:07:24.681Z,82.02
2022-12-18T02:09:51.890Z,81.43
2022-12-18T02:12:20.770Z,82.32
2022-12-18T02:14:57.002Z,82.87
2022-12-18T02:17:44.539Z,83.10
2022-12-18T02:20:26.048Z,82.66
2022-12-18T02:23:08.779Z,81.53
2022-12-18T02:26:10.736Z,81.61
2022-12-18T02:29:08.701Z,81.75
2022-12-18T02:31:44.037Z,82.27
2022-12-18T02:34:11.640Z,82.44
2022-12-18T02:36:40.705Z,81.83
2022-12-18T02:39:09.176Z,81.78
2022-12-18T02:41:37.559Z,81.74
2022-12-18T02:44:12.577Z,82.04
2022-12-18T02:46:41.799Z,82.91
2022-12-18T02:49:38.557Z,83.29
2022-12-18T02:52:08.037Z,82.29
2022-12-18T02:54:55.406Z,81.30
2022-12-18T02:57:43.562Z,81.98
2022-12-18T03:00:19.392Z,82.93
2022-12-18T03:02:59.822Z,83.18
2022-12-18T03:05:42.211Z,83.06
2022-12-18T03:08:16.551Z,81.73
2022-12-18T03:10:58.656Z,82.15
2022-12-18T03:13:48.054Z,81.92
2022-12-18T03:16:23.201Z,82.52
2022-12-18T03:19:07.803Z,83.72
2022-12-18T03:21:39.601Z,82.66
2022-12-18T03:24:08.348Z,81.98
2022-12-18T03:26:36.283Z,81.41
2022-12-18T03:29:07.052Z,81.80
2022-12-18T03:31:35.950Z,82.33
2022-12-18T03:34:14.043Z,83.32
2022-12-18T03:36:43.858Z,82.55
2022-12-18T03:39:11.334Z,82.11
2022-12-18T03:41:45.329Z,81.84
2022-12-18T03:44:57.018Z,82.48
2022-12-18T03:47:28.262Z,82.89
2022-12-18T03:50:22.047Z,82.49
2022-12-18T03:52:52.673Z,81.76
2022-12-18T03:55:20.466Z,80.98
2022-12-18T03:57:48.711Z,81.88
2022-12-18T04:00:17.092Z,82.32
2022-12-18T04:03:02.053Z,82.79
2022-12-18T04:05:33.973Z,82.23
2022-12-18T04:08:01.524Z,81.13
2022-12-18T04:10:29.165Z,80.91
2022-12-18T04:13:25.158Z,81.54
2022-12-18T04:15:53.048Z,81.63
2022-12-18T04:18:21.555Z,81.82
2022-12-18T04:20:49.354Z,82.01
2022-12-18T04:23:17.615Z,80.41
2022-12-18T04:25:44.724Z,80.00
2022-12-18T04:28:15.331Z,80.51
2022-12-18T04:30:43.115Z,81.06
2022-12-18T04:33:11.883Z,81.56
2022-12-18T04:35:40.244Z,82.30
2022-12-18T04:38:08.832Z,81.63
2022-12-18T04:40:36.498Z,80.92
2022-12-18T04:43:04.116Z,81.43
2022-12-18T04:45:32.026Z,81.96
2022-12-18T04:47:59.789Z,81.60
2022-12-18T04:50:27.009Z,82.33
2022-12-18T04:52:54.189Z,81.91
2022-12-18T04:55:21.203Z,80.94
2022-12-18T04:57:48.186Z,80.55
2022-12-18T05:00:15.723Z,80.66
2022-12-18T05:02:42.959Z,82.00
2022-12-18T05:05:10.344Z,82.41
2022-12-18T05:07:37.156Z,82.59
2022-12-18T05:10:07.747Z,81.50
2022-12-18T05:12:54.687Z,81.54
2022-12-18T05:15:21.676Z,81.99
2022-12-18T05:17:48.483Z,82.82
2022-12-18T05:20:15.575Z,83.36
2022-12-18T05:22:42.504Z,82.64
2022-12-18T05:25:09.500Z,82.02
2022-12-18T05:27:36.909Z,81.33
2022-12-18T05:30:04.978Z,81.90
2022-12-18T05:32:32.131Z,82.37
2022-12-18T05:34:58.931Z,83.05
2022-12-18T05:37:26.941Z,83.60
2022-12-18T05:39:53.987Z,83.07
2022-12-18T05:42:20.806Z,82.89
2022-12-18T05:44:48.185Z,82.94
2022-12-18T05:47:15.109Z,83.92
2022-12-18T05:49:42.114Z,84.89
2022-12-18T05:52:09.426Z,84.87
2022-12-18T05:54:36.427Z,84.61
2022-12-18T05:57:03.433Z,84.58
2022-12-18T05:59:30.872Z,85.30
2022-12-18T06:01:57.848Z,85.78
2022-12-18T06:04:24.959Z,86.07
2022-12-18T06:06:52.562Z,84.89
2022-12-18T06:09:19.674Z,85.22
2022-12-18T06:11:46.620Z,85.83
2022-12-18T06:21:50.506Z,85.30
2022-12-18T06:24:17.569Z,85.72
2022-12-18T06:26:44.433Z,86.16
2022-12-18T06:29:11.336Z,85.98
2022-12-18T06:31:38.720Z,85.46
2022-12-18T06:34:05.958Z,85.83
2022-12-18T06:36:32.865Z,85.69
2022-12-18T06:38:59.904Z,86.54
2022-12-18T06:41:26.971Z,86.33
2022-12-18T06:43:59.405Z,85.80
2022-12-18T06:46:26.847Z,85.81
2022-12-18T06:48:53.935Z,86.56
2022-12-18T06:51:22.084Z,86.54
2022-12-18T06:53:48.977Z,87.32
2022-12-18T06:56:15.995Z,86.03
2022-12-18T06:58:42.969Z,86.22
2022-12-18T07:01:11.459Z,86.75
2022-12-18T07:03:42.621Z,87.26
2022-12-18T07:06:18.177Z,87.48
2022-12-18T07:08:46.079Z,86.51
2022-12-18T07:11:13.351Z,86.13
2022-12-18T07:13:40.467Z,86.01
2022-12-18T07:16:20.916Z,87.11
2022-12-18T07:18:51.157Z,87.67
2022-12-18T07:21:19.741Z,87.16
2022-12-18T07:23:49.216Z,86.48
2022-12-18T07:26:18.790Z,86.65
2022-12-18T07:28:45.659Z,86.62
2022-12-18T07:31:15.771Z,87.03
2022-12-18T07:33:43.142Z,87.09
2022-12-18T10:26:44.137Z,90.00
2022-12-18T10:29:12.583Z,88.35
2022-12-18T10:31:39.678Z,86.03
2022-12-18T10:34:11.199Z,85.01
2022-12-18T10:36:40.991Z,84.93
2022-12-18T10:39:19.920Z,85.18
2022-12-18T10:41:47.008Z,85.71
2022-12-18T10:44:23.937Z,85.87
2022-12-18T10:46:56.395Z,84.91
2022-12-18T10:49:28.466Z,84.48
2022-12-18T10:52:06.070Z,84.37
2022-12-18T10:54:35.089Z,84.71
2022-12-18T10:57:29.780Z,84.24
2022-12-18T10:59:58.339Z,82.91
2022-12-18T11:02:43.955Z,83.81
2022-12-18T11:05:37.738Z,84.29
2022-12-18T11:08:04.691Z,85.09
2022-12-18T11:10:34.085Z,85.04
2022-12-18T11:13:37.081Z,83.09
2022-12-18T11:16:04.211Z,83.61
2022-12-18T11:18:35.271Z,84.23
2022-12-18T11:21:10.386Z,84.88
2022-12-18T11:23:37.901Z,84.46
2022-12-18T11:26:05.171Z,83.22
2022-12-18T11:28:44.437Z,83.48
2022-12-18T11:31:15.375Z,84.06
2022-12-18T11:34:04.852Z,84.65
2022-12-18T11:36:37.188Z,85.41
2022-12-18T11:39:18.768Z,83.72
2022-12-18T11:42:20.122Z,83.70
2022-12-18T11:44:56.521Z,83.56
2022-12-18T11:47:39.688Z,83.44
2022-12-18T11:50:13.556Z,84.31
2022-12-18T11:52:40.867Z,83.86
2022-12-18T11:55:12.986Z,82.67
2022-12-18T11:57:51.924Z,83.11
2022-12-18T12:00:19.728Z,83.66
2022-12-18T12:03:05.580Z,84.19
2022-12-18T12:05:42.593Z,84.25
2022-12-18T12:08:24.790Z,83.49
2022-12-18T12:10:58.100Z,82.52
2022-12-18T12:14:03.334Z,82.47
2022-12-18T12:16:36.781Z,83.30
2022-12-18T12:19:03.482Z,83.72
2022-12-18T12:21:41.069Z,83.74
2022-12-18T12:24:33.381Z,82.59
2022-12-18T12:27:06.254Z,82.62
2022-12-18T12:30:00.264Z,82.89
2022-12-18T12:32:46.459Z,83.34
2022-12-18T12:35:30.515Z,84.10
2022-12-18T12:37:57.553Z,83.60
2022-12-18T12:40:51.305Z,82.43
2022-12-18T12:43:38.547Z,82.13
2022-12-18T12:46:11.449Z,82.82
2022-12-18T12:48:49.127Z,82.86
2022-12-18T12:51:29.998Z,84.42
2022-12-18T12:53:57.849Z,83.03
2022-12-18T12:56:29.621Z,81.06
2022-12-18T12:59:17.743Z,80.40
2022-12-18T13:01:53.620Z,80.27
2022-12-18T13:04:44.219Z,81.35
2022-12-18T13:07:28.359Z,82.11
2022-12-18T13:10:23.021Z,82.95
2022-12-18T13:13:03.555Z,80.78
2022-12-18T13:15:39.777Z,79.58
2022-12-18T13:18:10.241Z,80.21
2022-12-18T13:20:42.270Z,80.77
2022-12-18T13:23:26.315Z,82.12
2022-12-18T13:26:16.615Z,82.51
2022-12-18T13:28:46.827Z,82.23
2022-12-18T13:31:15.511Z,80.89
2022-12-18T13:36:33.111Z,81.35
2022-12-18T13:39:12.495Z,81.95
2022-12-18T13:41:40.058Z,82.74
2022-12-18T13:44:13.354Z,82.95
2022-12-18T13:46:45.595Z,82.41
2022-12-18T13:49:14.059Z,81.60
2022-12-18T13:51:49.131Z,81.54
2022-12-18T16:46:16.902Z,90.84
2022-12-18T16:48:43.985Z,88.87
2022-12-18T16:51:11.770Z,85.15
2022-12-18T16:53:39.635Z,83.28
2022-12-18T16:56:07.154Z,83.00
2022-12-18T16:58:34.813Z,83.05
2022-12-18T17:01:08.415Z,84.16
2022-12-18T17:03:35.406Z,84.90
2022-12-18T17:06:04.250Z,83.63
2022-12-18T17:08:32.425Z,81.50
2022-12-18T17:11:06.751Z,81.64
2022-12-18T17:13:33.941Z,82.11
2022-12-18T17:16:07.808Z,83.35
2022-12-18T17:18:35.151Z,83.94
2022-12-18T17:21:02.916Z,83.29
2022-12-18T17:23:32.933Z,82.32
2022-12-18T17:26:00.053Z,82.25
2022-12-18T17:28:27.488Z,83.44
2022-12-18T17:30:55.242Z,84.07
2022-12-18T17:33:23.301Z,84.39
2022-12-18T17:35:50.418Z,83.69
2022-12-18T17:38:17.677Z,82.82
2022-12-18T17:40:46.487Z,83.11
2022-12-18T17:43:14.035Z,83.14
2022-12-18T17:45:41.154Z,83.89
2022-12-18T17:48:08.319Z,84.61
2022-12-18T17:50:36.466Z,84.46
2022-12-18T17:53:03.639Z,83.22
2022-12-18T17:55:30.594Z,83.57
2022-12-18T17:57:59.778Z,83.64
2022-12-18T18:00:27.550Z,84.03
2022-12-18T18:02:55.486Z,84.78
2022-12-18T18:05:22.561Z,84.31
2022-12-18T18:07:51.925Z,83.55
2022-12-18T18:10:20.450Z,82.81
2022-12-18T18:13:06.841Z,82.75
2022-12-18T18:15:34.181Z,83.06
2022-12-18T18:18:02.073Z,83.19
2022-12-18T18:20:30.103Z,83.94
2022-12-18T18:22:57.950Z,83.51
2022-12-18T18:25:25.774Z,82.61
2022-12-18T18:27:53.456Z,81.47
2022-12-18T18:30:20.677Z,82.23
2022-12-18T18:32:47.825Z,82.45
2022-12-18T18:35:37.555Z,83.00
2022-12-18T18:38:03.969Z,83.35
2022-12-18T18:40:31.084Z,83.02
2022-12-18T18:42:57.981Z,82.33
2022-12-18T18:45:25.015Z,81.70
2022-12-18T18:47:52.128Z,82.28
2022-12-18T18:50:19.612Z,82.82
2022-12-18T18:52:47.240Z,82.84
2022-12-18T18:55:22.323Z,83.67
2022-12-18T18:57:53.210Z,83.01
2022-12-18T19:00:20.464Z,81.94
2022-12-18T19:02:53.045Z,82.19
2022-12-18T19:05:22.490Z,83.58
2022-12-18T19:07:50.412Z,83.77
2022-12-18T19:10:18.482Z,84.43
2022-12-18T19:13:05.087Z,83.48
2022-12-18T19:15:33.772Z,82.83
2022-12-18T19:18:01.330Z,83.06
2022-12-18T19:20:28.790Z,83.27
2022-12-18T19:22:56.168Z,84.26
2022-12-18T19:25:29.699Z,84.50
2022-12-18T19:28:05.698Z,83.38
2022-12-18T19:30:38.578Z,82.89
2022-12-18T19:33:20.015Z,82.34
2022-12-18T19:35:53.667Z,82.53
2022-12-18T19:38:21.482Z,82.91
2022-12-18T19:40:48.578Z,83.67
2022-12-18T19:43:15.801Z,83.71
2022-12-18T19:45:43.613Z,82.64
2022-12-18T19:48:10.746Z,81.96
2022-12-18T19:50:41.249Z,81.72
2022-12-18T19:53:08.138Z,83.15
2022-12-18T19:55:41.402Z,84.16
2022-12-18T19:58:10.604Z,85.24
2022-12-18T20:00:37.713Z,84.16
2022-12-18T20:03:15.616Z,83.10
2022-12-18T20:05:49.666Z,83.34
2022-12-18T20:08:17.124Z,84.20
2022-12-18T20:10:50.111Z,84.43
2022-12-18T20:13:18.361Z,84.75
2022-12-18T20:15:45.651Z,83.88
2022-12-18T20:18:12.823Z,82.82
2022-12-18T20:20:40.062Z,82.36
2022-12-18T20:23:07.349Z,81.92
2022-12-18T20:25:34.443Z,82.49
2022-12-18T20:28:01.608Z,83.23
2022-12-18T20:30:29.253Z,83.73
2022-12-18T20:32:56.361Z,82.33
2022-12-18T20:35:27.562Z,80.28
2022-12-18T20:37:55.404Z,79.16
2022-12-18T20:40:23.502Z,79.79
2022-12-18T20:42:50.534Z,81.43
2022-12-18T20:45:20.028Z,82.36
2022-12-18T20:47:47.484Z,83.10
2022-12-18T20:50:14.941Z,82.84
2022-12-18T20:52:42.099Z,80.68
2022-12-18T20:55:09.134Z,78.58
2022-12-18T20:57:38.488Z,78.25
2022-12-18T21:00:06.752Z,78.16
2022-12-18T21:02:34.049Z,79.15
2022-12-18T21:05:01.247Z,80.94
2022-12-18T21:07:28.084Z,82.24
2022-12-18T21:09:55.212Z,83.13
2022-12-18T21:12:34.899Z,81.82
2022-12-18T21:15:08.032Z,79.91
2022-12-18T21:17:38.691Z,79.26
2022-12-18T21:20:15.798Z,79.79
2022-12-18T21:22:44.918Z,80.83
2022-12-18T21:25:13.333Z,82.03
2022-12-18T21:27:40.577Z,81.91
2022-12-18T21:30:08.551Z,82.45
2022-12-18T21:32:36.541Z,80.52
2022-12-18T21:35:04.901Z,79.23
2022-12-18T21:37:31.756Z,78.66
2022-12-18T21:39:58.781Z,79.24
2022-12-18T21:42:44.574Z,79.88
2022-12-18T21:45:11.585Z,80.98
2022-12-18T21:47:38.656Z,82.13
2022-12-18T21:50:06.323Z,81.99
2022-12-18T21:52:33.821Z,79.89
2022-12-18T21:55:06.657Z,78.48
2022-12-18T21:57:37.281Z,77.66
2022-12-18T22:00:06.087Z,77.91
2022-12-18T22:02:39.349Z,79.33
2022-12-18T22:05:07.652Z,80.25
2022-12-18T22:07:34.637Z,81.21
2022-12-18T22:10:02.046Z,80.75
2022-12-18T22:12:43.164Z,78.66
2022-12-18T22:15:13.135Z,76.75
2022-12-18T22:17:50.243Z,76.47
2022-12-18T22:20:18.403Z,77.62
2022-12-18T22:22:48.219Z,79.25
2022-12-18T22:25:15.363Z,79.92
2022-12-18T22:27:42.307Z,81.45
2022-12-18T22:30:10.994Z,81.37
2022-12-18T22:32:37.833Z,79.19
2022-12-18T22:35:09.528Z,77.40
2022-12-18T22:37:41.030Z,77.24
2022-12-18T22:40:11.201Z,78.61
2022-12-18T22:42:40.588Z,79.50
2022-12-18T22:45:08.636Z,80.67
2022-12-18T22:47:35.633Z,81.89
2022-12-18T22:50:02.525Z,81.83
2022-12-18T22:52:30.518Z,79.69
2022-12-18T22:54:57.538Z,77.80
2022-12-18T22:57:24.789Z,78.30
2022-12-18T22:59:51.715Z,78.91
2022-12-18T23:02:19.051Z,79.34
2022-12-18T23:04:46.953Z,81.07
2022-12-18T23:07:14.815Z,82.01
2022-12-18T23:09:41.761Z,82.01
2022-12-18T23:12:14.256Z,80.48
2022-12-18T23:14:41.218Z,78.09
2022-12-18T23:17:08.102Z,76.87
2022-12-18T23:19:37.892Z,77.16
2022-12-18T23:22:10.032Z,77.63
2022-12-18T23:24:38.892Z,78.95
2022-12-18T23:27:08.608Z,79.80
2022-12-18T23:29:40.164Z,80.68
2022-12-18T23:32:07.156Z,80.06
2022-12-18T23:34:34.570Z,77.87
2022-12-18T23:37:03.140Z,76.68
2022-12-18T23:39:30.546Z,76.80
2022-12-18T23:41:58.381Z,78.52
2022-12-18T23:44:25.618Z,79.48
2022-12-18T23:46:52.650Z,80.21
2022-12-18T23:49:19.813Z,80.95
2022-12-18T23:51:47.017Z,81.56
2022-12-18T23:54:13.897Z,79.86
2022-12-18T23:56:41.001Z,77.76
2022-12-18T23:59:08.337Z,76.74
